Time;durP1;ratioP1;P1;durP2;ratioP2;P2;SDS_P1;SDS_P2;PMS_P1;PMS_P2;Temp;Humidity;BMP_temperature;BMP_pressure;BME280_temperature;BME280_humidity;BME280_pressure;Samples;Min_cycle;Max_cycle;Signal;HPM_P1;HPM_P2
2022/01/24 00:00:22;;;;;;;;;;;;;;;4.41;100.00;103543.41;5065278;28;20288;-70
2022/01/24 00:02:48;;;;;;;;;;;;;;;4.42;100.00;103537.56;5077327;28;20297;-69
2022/01/24 00:05:13;;;;;;;;;;;;;;;4.39;100.00;103528.75;5039480;28;19931;-70
2022/01/24 00:07:38;;;;;;;;;;;;;;;4.37;100.00;103528.59;5054131;28;19928;-71
2022/01/24 00:10:09;;;;;;;;;;;;;;;4.39;100.00;103534.72;5069620;28;19973;-70
2022/01/24 00:15:10;;;;;;;;;;;;;;;4.38;100.00;103534.59;5067991;28;19924;-70
2022/01/24 00:17:39;;;;;;;;;;;;;;;4.34;96.60;103529.94;5053893;28;20369;-70
2022/01/24 00:28:19;;;;;;;;;;;;;;;4.34;95.76;103528.28;5072027;28;19931;-70
2022/01/24 00:30:44;;;;;;;;;;;;;;;4.34;94.22;103527.41;5063839;28;19935;-72
2022/01/24 00:33:10;;;;;;;;;;;;;;;4.32;95.27;103522.16;5065504;28;19916;-71
2022/01/24 00:35:35;;;;;;;;;;;;;;;4.29;92.26;103525.31;5068353;28;20369;-70
2022/01/24 00:38:01;;;;;;;;;;;;;;;4.30;94.22;103511.81;5055090;28;19928;-70
2022/01/24 00:40:27;;;;;;;;;;;;;;;4.28;91.66;103513.31;5068728;28;19947;-70
2022/01/24 00:42:56;;;;;;;;;;;;;;;4.29;92.75;103520.22;5050214;28;19936;-70
2022/01/24 00:55:45;;;;;;;;;;;;;;;4.24;91.53;103516.31;5067012;28;20293;-71
2022/01/24 00:58:10;;;;;;;;;;;;;;;4.23;91.87;103518.72;5066782;28;19974;-69
2022/01/24 01:00:37;;;;;;;;;;;;;;;4.23;90.52;103516.19;5076237;28;20080;-71
2022/01/24 01:03:02;;;;;;;;;;;;;;;4.25;93.04;103515.59;5063006;28;20436;-70
2022/01/24 01:08:12;;;;;;;;;;;;;;;4.20;92.24;103511.69;5079885;28;19963;-69
2022/01/24 01:18:49;;;;;;;;;;;;;;;4.17;91.25;103506.28;5062545;28;19935;-70
2022/01/24 01:21:15;;;;;;;;;;;;;;;4.15;89.54;103505.25;5063812;28;19920;-70
2022/01/24 01:23:46;;;;;;;;;;;;;;;4.17;91.05;103503.75;5062889;28;19926;-69
2022/01/24 01:26:26;;;;;;;;;;;;;;;4.16;88.84;103501.97;5053473;28;20297;-69
2022/01/24 01:29:29;;;;;;;;;;;;;;;4.18;92.20;103510.63;5063122;28;19923;-70
2022/01/24 01:34:33;;;;;;;;;;;;;;;4.17;89.62;103500.31;5068937;28;19921;-69
2022/01/24 01:37:49;;;;;;;;;;;;;;;4.18;91.71;103505.53;5049687;28;20393;-70
2022/01/24 01:55:57;;;;;;;;;;;;;;;4.12;89.75;103515.13;5063799;28;19935;-69
2022/01/24 01:58:23;;;;;;;;;;;;;;;4.13;90.87;103509.31;5045425;28;20382;-70
2022/01/24 02:00:57;;;;;;;;;;;;;;;4.11;88.72;103515.91;5065011;28;20010;-69
2022/01/24 02:03:23;;;;;;;;;;;;;;;4.13;89.20;103510.97;5063342;28;19921;-70
2022/01/24 02:05:48;;;;;;;;;;;;;;;4.14;89.46;103510.22;5043549;28;19931;-72
2022/01/24 02:08:15;;;;;;;;;;;;;;;4.15;90.44;103510.34;5042099;28;19928;-72
2022/01/24 02:10:42;;;;;;;;;;;;;;;4.15;90.96;103506.91;5038390;28;19928;-70
2022/01/24 02:13:08;;;;;;;;;;;;;;;4.14;90.95;103497.47;5046069;28;20362;-69
2022/01/24 02:25:51;;;;;;;;;;;;;;;4.10;89.67;103487.75;5065615;28;20289;-69
2022/01/24 02:28:18;;;;;;;;;;;;;;;4.09;90.52;103489.41;5042779;28;19951;-70
2022/01/24 02:33:12;;;;;;;;;;;;;;;4.09;90.37;103485.94;5063459;28;19920;-70
2022/01/24 02:35:38;;;;;;;;;;;;;;;4.06;88.37;103483.09;5060255;28;20015;-72
2022/01/24 02:38:09;;;;;;;;;;;;;;;4.06;89.68;103480.56;5062933;28;19919;-69
2022/01/24 02:40:35;;;;;;;;;;;;;;;4.07;91.45;103480.72;5064655;28;20019;-70
2022/01/24 02:48:23;;;;;;;;;;;;;;;4.05;89.53;103479.66;5019915;28;19929;-73
2022/01/24 02:48:52;;;;;;;;;;;;;;;4.02;87.01;103481.94;5050352;28;19972;-71
2022/01/24 02:53:43;;;;;;;;;;;;;;;4.04;89.66;103478.75;5063094;28;19924;-71
2022/01/24 02:56:08;;;;;;;;;;;;;;;4.03;89.22;103482.06;5063633;28;19921;-70
2022/01/24 02:58:33;;;;;;;;;;;;;;;4.02;88.68;103479.38;5048664;28;19936;-70
2022/01/24 03:00:59;;;;;;;;;;;;;;;4.02;89.10;103477.72;5052182;28;20050;-70
2022/01/24 03:03:24;;;;;;;;;;;;;;;4.01;89.62;103473.41;5073510;28;20362;-70
2022/01/24 03:05:50;;;;;;;;;;;;;;;4.01;89.83;103469.94;5046781;28;19964;-71
2022/01/24 03:08:15;;;;;;;;;;;;;;;4.00;89.69;103473.22;5043529;28;19969;-69
2022/01/24 03:10:45;;;;;;;;;;;;;;;3.99;90.44;103469.78;5068381;28;19979;-69
2022/01/24 03:15:39;;;;;;;;;;;;;;;4.00;92.09;103465.59;5065508;28;19922;-69
2022/01/24 03:18:05;;;;;;;;;;;;;;;3.98;90.55;103467.09;5060668;28;19921;-69
2022/01/24 03:20:30;;;;;;;;;;;;;;;3.97;89.65;103470.41;5067397;28;19928;-69
2022/01/24 03:22:55;;;;;;;;;;;;;;;3.96;90.00;103464.41;5070044;28;20289;-69
2022/01/24 03:25:21;;;;;;;;;;;;;;;3.99;90.40;103463.78;5063448;28;20430;-71
2022/01/24 03:27:46;;;;;;;;;;;;;;;3.97;88.16;103465.31;5048418;28;20003;-70
2022/01/24 03:30:11;;;;;;;;;;;;;;;3.94;86.96;103454.81;5074545;28;20015;-69
2022/01/24 03:32:37;;;;;;;;;;;;;;;3.98;90.12;103462.00;5047034;28;19928;-73
2022/01/24 03:35:07;;;;;;;;;;;;;;;3.96;90.15;103454.22;5065337;28;19966;-69
2022/01/24 03:37:32;;;;;;;;;;;;;;;3.95;88.80;103461.72;5063137;28;19974;-69
2022/01/24 03:39:58;;;;;;;;;;;;;;;3.95;89.47;103454.09;5069400;28;19924;-68
2022/01/24 03:42:23;;;;;;;;;;;;;;;3.95;89.83;103462.63;5050639;28;19920;-71
2022/01/24 03:44:55;;;;;;;;;;;;;;;3.93;89.48;103460.66;5040169;28;19920;-69
2022/01/24 03:47:42;;;;;;;;;;;;;;;3.93;88.48;103464.09;5046738;28;19923;-69
2022/01/24 03:50:07;;;;;;;;;;;;;;;3.92;88.94;103466.50;5064387;28;19920;-69
2022/01/24 03:52:32;;;;;;;;;;;;;;;3.92;88.05;103458.88;5045917;28;19921;-69
2022/01/24 03:54:58;;;;;;;;;;;;;;;3.92;88.37;103463.97;5049101;28;19939;-70
2022/01/24 03:57:24;;;;;;;;;;;;;;;3.92;88.65;103461.41;5065366;28;19955;-69
2022/01/24 03:59:49;;;;;;;;;;;;;;;3.91;89.32;103462.16;5058185;28;19924;-69
2022/01/24 04:02:15;;;;;;;;;;;;;;;3.89;89.00;103463.69;5046378;28;20373;-70
2022/01/24 04:04:40;;;;;;;;;;;;;;;3.90;89.11;103457.84;5060019;28;19920;-70
2022/01/24 04:07:06;;;;;;;;;;;;;;;3.90;89.93;103452.75;5064387;28;19929;-69
2022/01/24 04:09:31;;;;;;;;;;;;;;;3.89;89.95;103448.41;5055795;28;19943;-71
2022/01/24 04:11:58;;;;;;;;;;;;;;;3.89;90.32;103454.41;5061105;28;19920;-68
2022/01/24 04:22:01;;;;;;;;;;;;;;;3.88;87.78;103449.13;5060947;28;20593;-69
2022/01/24 04:24:27;;;;;;;;;;;;;;;3.86;88.04;103435.38;5066319;28;19956;-69
2022/01/24 04:26:52;;;;;;;;;;;;;;;3.86;88.21;103445.56;5051171;28;19920;-69
2022/01/24 04:29:17;;;;;;;;;;;;;;;3.83;87.29;103456.34;5036438;28;19955;-69
2022/01/24 04:31:44;;;;;;;;;;;;;;;3.85;88.52;103447.19;5044182;28;19928;-69
2022/01/24 04:34:09;;;;;;;;;;;;;;;3.85;88.92;103453.94;5068263;28;19925;-69
2022/01/24 04:36:34;;;;;;;;;;;;;;;3.83;86.99;103458.91;5061762;28;20031;-70
2022/01/24 04:39:00;;;;;;;;;;;;;;;3.85;89.38;103453.94;5054107;28;20399;-72
2022/01/24 04:41:29;;;;;;;;;;;;;;;3.83;89.00;103455.47;5070548;28;19920;-69
2022/01/24 04:44:11;;;;;;;;;;;;;;;3.83;89.55;103458.00;5053451;28;19991;-69
2022/01/24 04:54:42;;;;;;;;;;;;;;;3.82;87.62;103453.63;5067366;28;19916;-70
2022/01/24 04:57:08;;;;;;;;;;;;;;;3.83;88.99;103456.34;5067761;28;19924;-69
2022/01/24 04:59:34;;;;;;;;;;;;;;;3.82;89.65;103456.19;5046424;28;20336;-69
2022/01/24 05:01:59;;;;;;;;;;;;;;;3.81;88.59;103460.38;5064614;28;19989;-69
2022/01/24 05:04:24;;;;;;;;;;;;;;;3.81;88.16;103462.03;5075197;28;19970;-72
2022/01/24 05:06:49;;;;;;;;;;;;;;;3.80;87.64;103467.88;5049865;28;20416;-69
2022/01/24 05:09:17;;;;;;;;;;;;;;;3.81;88.73;103469.66;5068455;28;20016;-70
2022/01/24 05:11:50;;;;;;;;;;;;;;;3.81;87.44;103472.19;5069215;28;19924;-69
2022/01/24 05:25:11;;;;;;;;;;;;;;;3.80;88.47;103455.13;5050470;28;19966;-69
2022/01/24 05:27:37;;;;;;;;;;;;;;;3.80;88.60;103450.06;5047313;28;19924;-72
2022/01/24 05:30:03;;;;;;;;;;;;;;;3.78;88.62;103451.56;5049838;28;19920;-69
2022/01/24 05:32:28;;;;;;;;;;;;;;;3.77;89.70;103450.66;5064009;28;19999;-69
2022/01/24 05:34:53;;;;;;;;;;;;;;;3.77;89.99;103445.56;5048008;28;20014;-69
2022/01/24 05:37:18;;;;;;;;;;;;;;;3.75;89.30;103453.03;5061671;28;19925;-69
2022/01/24 05:39:46;;;;;;;;;;;;;;;3.76;90.12;103448.84;5059106;28;23664;-71
2022/01/24 05:42:11;;;;;;;;;;;;;;;3.74;89.53;103451.25;5065003;28;20015;-70
2022/01/24 05:44:36;;;;;;;;;;;;;;;3.75;89.58;103459.78;5054074;28;20313;-70
2022/01/24 05:47:01;;;;;;;;;;;;;;;3.74;88.87;103453.78;5046512;28;20377;-70
2022/01/24 05:49:27;;;;;;;;;;;;;;;3.74;89.40;103460.53;5061958;28;19959;-69
2022/01/24 05:51:52;;;;;;;;;;;;;;;3.74;89.37;103458.00;5062682;28;19928;-69
2022/01/24 05:54:17;;;;;;;;;;;;;;;3.74;89.10;103461.44;5060612;28;19981;-69
2022/01/24 05:56:43;;;;;;;;;;;;;;;3.74;88.15;103461.44;5061755;28;19924;-69
2022/01/24 05:59:08;;;;;;;;;;;;;;;3.75;89.92;103458.13;5048303;28;19929;-69
2022/01/24 06:01:33;;;;;;;;;;;;;;;3.73;89.27;103459.63;5067057;28;19924;-72
2022/01/24 06:03:58;;;;;;;;;;;;;;;3.74;90.82;103456.34;5047707;28;19925;-69
2022/01/24 06:06:24;;;;;;;;;;;;;;;3.71;89.20;103450.97;5066613;28;19920;-70
2022/01/24 06:08:49;;;;;;;;;;;;;;;3.75;90.64;103459.78;5056858;28;19934;-72
2022/01/24 06:11:14;;;;;;;;;;;;;;;3.70;87.65;103453.34;5066088;28;20305;-73
2022/01/24 06:13:40;;;;;;;;;;;;;;;3.70;88.96;103453.34;5049671;28;19928;-70
2022/01/24 06:16:05;;;;;;;;;;;;;;;3.70;89.26;103456.81;5058482;28;19928;-70
2022/01/24 06:18:31;;;;;;;;;;;;;;;3.70;88.91;103459.34;5056902;28;19939;-73
2022/01/24 06:20:58;;;;;;;;;;;;;;;3.70;88.60;103459.34;5068719;28;20394;-69
2022/01/24 06:23:25;;;;;;;;;;;;;;;3.70;89.82;103460.97;5046598;28;19929;-72
2022/01/24 06:25:50;;;;;;;;;;;;;;;3.70;89.61;103463.53;5065174;28;19920;-70
2022/01/24 06:28:15;;;;;;;;;;;;;;;3.71;90.26;103462.78;5052720;28;19924;-70
2022/01/24 06:30:41;;;;;;;;;;;;;;;3.70;90.02;103458.44;5050120;28;19924;-69
2022/01/24 06:33:06;;;;;;;;;;;;;;;3.67;89.28;103456.50;5064790;28;19921;-69
2022/01/24 06:35:31;;;;;;;;;;;;;;;3.68;90.50;103453.19;5063114;28;19921;-69
2022/01/24 06:37:56;;;;;;;;;;;;;;;3.67;90.14;103456.50;5078564;28;19920;-69
2022/01/24 06:40:22;;;;;;;;;;;;;;;3.65;89.90;103455.47;5048757;28;19924;-69
2022/01/24 06:42:47;;;;;;;;;;;;;;;3.65;89.90;103450.38;5045529;28;19921;-69
2022/01/24 06:45:12;;;;;;;;;;;;;;;3.68;90.14;103459.94;5050692;28;19920;-70
2022/01/24 06:47:40;;;;;;;;;;;;;;;3.63;87.57;103454.41;5067133;28;19928;-71
2022/01/24 06:50:05;;;;;;;;;;;;;;;3.65;88.58;103454.56;5066257;28;20413;-70
2022/01/24 06:52:30;;;;;;;;;;;;;;;3.67;89.29;103456.50;5054101;28;19936;-69
2022/01/24 06:54:56;;;;;;;;;;;;;;;3.64;88.64;103461.31;5064821;28;20007;-69
2022/01/24 06:57:21;;;;;;;;;;;;;;;3.64;89.60;103466.41;5048854;28;19920;-69
2022/01/24 06:59:46;;;;;;;;;;;;;;;3.64;89.69;103468.94;5063278;28;19925;-70
2022/01/24 07:02:12;;;;;;;;;;;;;;;3.62;88.07;103454.25;5048426;28;19916;-70
2022/01/24 07:04:39;;;;;;;;;;;;;;;3.64;89.71;103463.84;5051178;28;19917;-70
2022/01/24 07:07:05;;;;;;;;;;;;;;;3.63;89.55;103468.75;5057498;28;19942;-70
2022/01/24 07:09:30;;;;;;;;;;;;;;;3.60;89.79;103465.94;5062392;28;19923;-70
2022/01/24 07:11:56;;;;;;;;;;;;;;;3.60;89.66;103474.47;5030004;28;20326;-70
2022/01/24 07:14:21;;;;;;;;;;;;;;;3.59;89.33;103472.69;5064880;28;19927;-70
2022/01/24 07:19:29;;;;;;;;;;;;;;;3.57;88.72;103471.59;5063293;28;21553;-72
2022/01/24 07:21:54;;;;;;;;;;;;;;;3.56;88.79;103474.00;5063244;28;19969;-70
2022/01/24 07:24:20;;;;;;;;;;;;;;;3.57;89.00;103476.69;5038467;28;20578;-70
2022/01/24 07:26:45;;;;;;;;;;;;;;;3.59;90.29;103475.22;5036410;28;19921;-71
2022/01/24 07:29:10;;;;;;;;;;;;;;;3.55;89.21;103478.19;5062908;28;19923;-69
2022/01/24 07:31:36;;;;;;;;;;;;;;;3.55;89.17;103480.75;5047126;28;20015;-71
2022/01/24 07:34:01;;;;;;;;;;;;;;;3.57;89.87;103478.34;5047581;28;20372;-70
2022/01/24 07:36:26;;;;;;;;;;;;;;;3.54;88.32;103476.41;5064027;28;19920;-74
2022/01/24 07:38:52;;;;;;;;;;;;;;;3.55;89.32;103477.31;5057634;28;19933;-75
2022/01/24 07:41:23;;;;;;;;;;;;;;;3.55;88.55;103478.19;5065380;28;19969;-75
2022/01/24 07:43:49;;;;;;;;;;;;;;;3.55;89.63;103473.13;5051446;28;19923;-75
2022/01/24 07:46:14;;;;;;;;;;;;;;;3.57;90.23;103474.16;5048395;28;19927;-74
2022/01/24 07:48:39;;;;;;;;;;;;;;;3.56;89.19;103485.09;5047915;28;20102;-73
2022/01/24 07:51:05;;;;;;;;;;;;;;;3.58;89.84;103482.69;5047545;28;20010;-75
2022/01/24 07:53:30;;;;;;;;;;;;;;;3.61;90.78;103490.63;5051379;28;19960;-75
2022/01/24 07:55:55;;;;;;;;;;;;;;;3.61;90.75;103490.63;5070733;28;19916;-73
2022/01/24 07:58:21;;;;;;;;;;;;;;;3.62;89.87;103500.94;5046910;28;20356;-71
2022/01/24 08:00:46;;;;;;;;;;;;;;;3.61;89.30;103505.91;5060097;28;20380;-73
2022/01/24 08:03:11;;;;;;;;;;;;;;;3.61;89.83;103504.25;5067033;28;20446;-73
2022/01/24 08:05:37;;;;;;;;;;;;;;;3.62;89.34;103513.66;5066550;28;19931;-73
2022/01/24 08:08:03;;;;;;;;;;;;;;;3.61;88.88;103510.97;5067495;28;19920;-73
2022/01/24 08:10:28;;;;;;;;;;;;;;;3.62;90.03;103513.66;5067597;28;20057;-75
2022/01/24 08:12:54;;;;;;;;;;;;;;;3.63;88.81;103507.81;5069547;28;20002;-74
2022/01/24 08:15:19;;;;;;;;;;;;;;;3.65;88.34;103508.00;5054058;28;19928;-73
2022/01/24 08:17:44;;;;;;;;;;;;;;;3.68;89.14;103505.75;5052569;28;19933;-72
2022/01/24 08:20:11;;;;;;;;;;;;;;;3.68;89.17;103509.19;5071011;28;19920;-72
2022/01/24 08:22:36;;;;;;;;;;;;;;;3.67;87.48;103502.31;5066701;28;20429;-72
2022/01/24 08:25:05;;;;;;;;;;;;;;;3.66;86.92;103510.69;5071438;28;20097;-72
2022/01/24 08:27:31;;;;;;;;;;;;;;;3.70;88.49;103514.41;5055173;28;19920;-72
2022/01/24 08:29:56;;;;;;;;;;;;;;;3.70;88.02;103511.88;5073929;28;19923;-72
2022/01/24 08:32:22;;;;;;;;;;;;;;;3.71;87.26;103516.25;5063946;28;19916;-72
2022/01/24 08:34:47;;;;;;;;;;;;;;;3.73;88.40;103515.63;5080069;28;19921;-71
2022/01/24 08:37:12;;;;;;;;;;;;;;;3.74;88.44;103507.25;5064962;28;20393;-73
2022/01/24 08:39:38;;;;;;;;;;;;;;;3.79;89.36;103515.31;5066219;28;19921;-72
2022/01/24 08:42:14;;;;;;;;;;;;;;;3.80;88.41;103518.78;5037407;28;20095;-73
2022/01/24 08:47:25;;;;;;;;;;;;;;;3.79;87.48;103519.53;5062625;28;19927;-76
2022/01/24 08:49:51;;;;;;;;;;;;;;;3.75;86.21;103519.22;5041972;28;20347;-76
2022/01/24 08:52:16;;;;;;;;;;;;;;;3.76;87.03;103517.56;5035387;28;19930;-74
2022/01/24 08:54:41;;;;;;;;;;;;;;;3.81;87.94;103525.66;5052092;28;19928;-74
2022/01/24 08:57:07;;;;;;;;;;;;;;;3.79;86.08;103517.88;5071062;28;19920;-73
2022/01/24 08:59:33;;;;;;;;;;;;;;;3.78;85.24;103525.38;5067551;28;19920;-72
2022/01/24 09:01:58;;;;;;;;;;;;;;;3.79;85.55;103524.63;5050629;28;20282;-74
2022/01/24 09:04:23;;;;;;;;;;;;;;;3.80;86.29;103519.66;5069033;28;20003;-73
2022/01/24 09:06:49;;;;;;;;;;;;;;;3.79;84.41;103520.41;5069906;28;19963;-73
2022/01/24 09:09:15;;;;;;;;;;;;;;;3.79;84.25;103517.88;5046349;28;19975;-75
2022/01/24 09:11:40;;;;;;;;;;;;;;;3.76;83.86;103523.56;5051735;28;19924;-73
2022/01/24 09:14:06;;;;;;;;;;;;;;;3.79;85.23;103522.06;5066666;28;19924;-72
2022/01/24 09:16:32;;;;;;;;;;;;;;;3.80;84.54;103531.50;5067506;28;19920;-73
2022/01/24 09:18:58;;;;;;;;;;;;;;;3.81;84.67;103530.75;5036083;28;19924;-72
2022/01/24 09:21:23;;;;;;;;;;;;;;;3.84;86.24;103523.41;5065631;28;19924;-73
2022/01/24 09:23:49;;;;;;;;;;;;;;;3.91;86.85;103520.72;5067509;28;19928;-72
2022/01/24 09:26:14;;;;;;;;;;;;;;;3.96;87.13;103524.63;5067249;28;19920;-73
2022/01/24 09:28:39;;;;;;;;;;;;;;;3.99;86.54;103522.34;5078633;28;19912;-73
2022/01/24 09:31:05;;;;;;;;;;;;;;;4.00;86.41;103521.59;5047209;28;19931;-74
2022/01/24 09:33:30;;;;;;;;;;;;;;;3.99;84.86;103520.69;5065373;28;19924;-73
2022/01/24 09:36:00;;;;;;;;;;;;;;;4.02;86.10;103525.22;5064519;28;19927;-73
2022/01/24 09:38:31;;;;;;;;;;;;;;;3.99;84.76;103527.44;5064751;28;19935;-73
2022/01/24 09:40:58;;;;;;;;;;;;;;;4.01;86.30;103523.41;5033340;28;19931;-74
2022/01/24 09:43:23;;;;;;;;;;;;;;;4.03;86.48;103522.81;5067230;28;20379;-75
2022/01/24 09:45:49;;;;;;;;;;;;;;;4.09;87.03;103521.59;5079317;28;19927;-73
2022/01/24 09:48:16;;;;;;;;;;;;;;;4.08;84.45;103519.81;5063911;28;19931;-73
2022/01/24 09:50:41;;;;;;;;;;;;;;;4.06;85.25;103522.19;5062349;28;19952;-72
2022/01/24 09:53:07;;;;;;;;;;;;;;;4.05;83.79;103520.41;5064155;28;20029;-72
2022/01/24 09:55:32;;;;;;;;;;;;;;;4.09;85.66;103522.50;5053919;28;19998;-75
2022/01/24 09:57:57;;;;;;;;;;;;;;;4.09;84.06;103521.59;5052063;28;19923;-74
2022/01/24 10:00:24;;;;;;;;;;;;;;;4.02;82.76;103522.66;5051653;28;19967;-74
2022/01/24 10:02:50;;;;;;;;;;;;;;;4.02;83.43;103528.66;5063872;28;20364;-75
2022/01/24 10:05:23;;;;;;;;;;;;;;;3.99;83.27;103527.44;5062847;28;19924;-75
2022/01/24 10:07:52;;;;;;;;;;;;;;;3.97;81.56;103526.41;5063859;28;20293;-74
2022/01/24 10:10:28;;;;;;;;;;;;;;;4.01;84.03;103523.41;5067734;28;19938;-74
2022/01/24 10:18:11;;;;;;;;;;;;;;;4.04;82.43;103519.50;5070087;28;19962;-76
2022/01/24 10:20:36;;;;;;;;;;;;;;;4.08;83.84;103517.25;5054490;28;19928;-75
2022/01/24 10:23:13;;;;;;;;;;;;;;;4.15;84.47;103523.09;5060069;28;19931;-76
2022/01/24 10:25:49;;;;;;;;;;;;;;;4.24;85.06;103518.88;5062548;28;19923;-76
2022/01/24 10:28:22;;;;;;;;;;;;;;;4.35;85.07;103525.00;5063342;28;20345;-74
2022/01/24 10:31:00;;;;;;;;;;;;;;;4.42;84.14;103518.81;5062234;28;20296;-74
2022/01/24 10:33:26;;;;;;;;;;;;;;;4.51;84.48;103515.50;5065031;28;20278;-74
2022/01/24 10:35:51;;;;;;;;;;;;;;;4.46;83.20;103521.81;5049596;28;19928;-74
2022/01/24 10:38:42;;;;;;;;;;;;;;;4.45;84.30;103519.13;5052294;28;20321;-74
2022/01/24 10:41:16;;;;;;;;;;;;;;;4.47;82.98;103521.06;5061850;28;20492;-74
2022/01/24 10:43:42;;;;;;;;;;;;;;;4.50;83.66;103520.47;5064540;28;19923;-74
2022/01/24 10:46:08;;;;;;;;;;;;;;;4.51;84.33;103515.50;5037320;28;19924;-73
2022/01/24 10:48:39;;;;;;;;;;;;;;;4.48;80.77;103521.97;5045733;28;19917;-74
2022/01/24 10:51:04;;;;;;;;;;;;;;;4.42;83.13;103508.63;5061076;28;19916;-74
2022/01/24 10:53:34;;;;;;;;;;;;;;;4.48;84.46;103511.75;5044784;28;20000;-74
2022/01/24 10:55:59;;;;;;;;;;;;;;;4.55;83.24;103517.63;5065135;28;20391;-74
2022/01/24 10:58:32;;;;;;;;;;;;;;;4.62;84.97;103513.09;5077678;28;20007;-75
2022/01/24 11:00:58;;;;;;;;;;;;;;;4.68;79.94;103503.47;5062521;28;19921;-74
2022/01/24 11:03:24;;;;;;;;;;;;;;;4.68;81.94;103509.47;5047851;28;20035;-74
2022/01/24 11:05:49;;;;;;;;;;;;;;;4.73;83.42;103500.59;5060092;28;20347;-76
2022/01/24 11:08:16;;;;;;;;;;;;;;;4.81;84.74;103502.22;5062884;28;19924;-74
2022/01/24 11:10:42;;;;;;;;;;;;;;;4.81;83.90;103492.00;5062137;28;19923;-75
2022/01/24 11:13:08;;;;;;;;;;;;;;;4.80;84.39;103502.97;5049577;28;19917;-72
2022/01/24 11:15:34;;;;;;;;;;;;;;;4.83;84.85;103503.25;5063372;28;19923;-72
2022/01/24 11:18:01;;;;;;;;;;;;;;;4.86;79.60;103500.09;5065810;28;20276;-73
2022/01/24 11:20:33;;;;;;;;;;;;;;;4.86;82.35;103500.09;5083975;28;19927;-73
2022/01/24 11:23:01;;;;;;;;;;;;;;;4.88;83.32;103500.22;5066323;28;20347;-72
2022/01/24 11:25:32;;;;;;;;;;;;;;;4.92;84.37;103497.22;5064989;28;20327;-74
2022/01/24 11:27:57;;;;;;;;;;;;;;;4.91;82.84;103490.31;5061286;28;19924;-73
2022/01/24 11:30:32;;;;;;;;;;;;;;;4.93;83.57;103489.72;5077167;28;19924;-72
2022/01/24 11:33:01;;;;;;;;;;;;;;;4.99;83.95;103491.94;5051429;28;20288;-73
2022/01/24 11:35:41;;;;;;;;;;;;;;;5.05;83.69;103488.28;5066605;28;20400;-72
2022/01/24 11:38:26;;;;;;;;;;;;;;;5.10;82.08;103491.28;5060309;28;19921;-73
2022/01/24 11:40:58;;;;;;;;;;;;;;;5.15;82.03;103490.00;5049902;28;19921;-73
2022/01/24 11:43:24;;;;;;;;;;;;;;;5.24;83.63;103489.97;5051669;28;20083;-74
2022/01/24 11:45:59;;;;;;;;;;;;;;;5.33;82.11;103486.59;5045468;28;20356;-74
2022/01/24 11:48:25;;;;;;;;;;;;;;;5.38;82.11;103492.13;5052739;28;20019;-74
2022/01/24 11:50:54;;;;;;;;;;;;;;;5.43;82.78;103482.34;5053814;28;20020;-74
2022/01/24 11:53:22;;;;;;;;;;;;;;;5.47;82.80;103484.41;5088663;28;20505;-74
2022/01/24 11:55:47;;;;;;;;;;;;;;;5.46;81.68;103473.31;5049636;28;19916;-73
2022/01/24 11:58:21;;;;;;;;;;;;;;;5.40;80.37;103477.88;5086579;28;20021;-73
2022/01/24 12:00:47;;;;;;;;;;;;;;;5.35;81.57;103474.88;5068545;28;19924;-73
2022/01/24 12:03:15;;;;;;;;;;;;;;;5.34;77.76;103470.56;5054587;28;19966;-73
2022/01/24 12:05:43;;;;;;;;;;;;;;;5.33;81.19;103466.19;5069365;28;19917;-73
2022/01/24 12:08:12;;;;;;;;;;;;;;;5.44;82.58;103466.25;5070358;28;19916;-73
2022/01/24 12:10:41;;;;;;;;;;;;;;;5.57;81.95;103462.38;5062180;28;19920;-74
2022/01/24 12:13:19;;;;;;;;;;;;;;;5.63;82.10;103462.03;5044802;28;20444;-74
2022/01/24 12:15:47;;;;;;;;;;;;;;;5.65;81.31;103465.66;5049602;28;19924;-76
2022/01/24 12:18:42;;;;;;;;;;;;;;;5.71;81.12;103466.19;5068760;28;19943;-73
2022/01/24 12:21:11;;;;;;;;;;;;;;;5.79;80.93;103462.66;5050220;28;19956;-73
2022/01/24 12:23:36;;;;;;;;;;;;;;;5.93;79.78;103463.00;5069267;28;20376;-73
2022/01/24 12:26:21;;;;;;;;;;;;;;;5.95;80.21;103461.50;5066586;28;19924;-74
2022/01/24 12:28:52;;;;;;;;;;;;;;;5.98;80.53;103460.09;5071066;28;20015;-71
2022/01/24 12:31:29;;;;;;;;;;;;;;;6.07;81.23;103454.94;5071980;28;20409;-75
2022/01/24 12:33:54;;;;;;;;;;;;;;;6.13;80.60;103455.47;5065294;28;20008;-75
2022/01/24 12:36:47;;;;;;;;;;;;;;;6.14;79.81;103454.69;5060823;28;20575;-75
2022/01/24 12:39:12;;;;;;;;;;;;;;;6.12;80.32;103444.31;5048343;28;19934;-76
2022/01/24 12:41:40;;;;;;;;;;;;;;;6.12;79.80;103441.75;5050594;28;19921;-75
2022/01/24 12:46:33;;;;;;;;;;;;;;;6.18;79.85;103438.84;5063052;28;19928;-75
2022/01/24 12:48:59;;;;;;;;;;;;;;;6.16;77.00;103433.59;5065584;28;20380;-75
2022/01/24 12:51:27;;;;;;;;;;;;;;;6.18;78.54;103438.84;5050425;28;20361;-76
2022/01/24 12:53:52;;;;;;;;;;;;;;;6.18;76.89;103431.19;5050551;28;20301;-75
2022/01/24 12:56:18;;;;;;;;;;;;;;;6.12;77.29;103433.19;5051222;28;19916;-75
2022/01/24 12:58:49;;;;;;;;;;;;;;;6.07;76.29;103431.94;5064616;28;19927;-75
2022/01/24 13:01:18;;;;;;;;;;;;;;;6.08;78.61;103428.63;5066729;28;19928;-76
2022/01/24 13:03:51;;;;;;;;;;;;;;;6.16;77.94;103418.28;5067330;28;20360;-75
2022/01/24 13:06:16;;;;;;;;;;;;;;;6.18;78.73;103415.84;5049871;28;19927;-75
2022/01/24 13:08:52;;;;;;;;;;;;;;;6.26;78.46;103412.31;5068598;28;19916;-75
2022/01/24 13:11:17;;;;;;;;;;;;;;;6.37;77.75;103398.81;5063306;28;20388;-76
2022/01/24 13:14:04;;;;;;;;;;;;;;;6.33;77.09;103403.53;5065557;28;19924;-75
2022/01/24 13:22:14;;;;;;;;;;;;;;;5.94;75.89;103418.84;5065430;28;20027;-75
2022/01/24 13:24:40;;;;;;;;;;;;;;;5.85;77.58;103418.91;5058596;28;19923;-76
2022/01/24 13:27:05;;;;;;;;;;;;;;;5.70;77.12;103410.78;5066389;28;20405;-75
2022/01/24 13:29:38;;;;;;;;;;;;;;;5.65;78.62;103417.16;5049129;28;19916;-75
2022/01/24 13:32:03;;;;;;;;;;;;;;;5.64;77.43;103412.78;5029326;28;19921;-75
2022/01/24 13:34:28;;;;;;;;;;;;;;;5.63;76.89;103421.19;5067577;28;19939;-76
2022/01/24 13:37:04;;;;;;;;;;;;;;;5.70;79.22;103414.97;5064649;28;19969;-75
2022/01/24 13:39:29;;;;;;;;;;;;;;;5.62;76.61;103419.41;5049784;28;19925;-75
2022/01/24 13:41:55;;;;;;;;;;;;;;;5.52;76.94;103416.78;5043745;28;19917;-74
2022/01/24 13:44:20;;;;;;;;;;;;;;;5.41;74.96;103417.53;5044558;28;20003;-74
2022/01/24 13:46:46;;;;;;;;;;;;;;;5.37;78.51;103412.13;5042559;28;19936;-74
2022/01/24 13:49:16;;;;;;;;;;;;;;;5.37;78.39;103417.22;5046889;28;19917;-74
2022/01/24 13:51:46;;;;;;;;;;;;;;;5.43;78.32;103418.53;5042360;28;20007;-75
2022/01/24 13:54:12;;;;;;;;;;;;;;;5.42;76.10;103419.31;5043635;28;19921;-75
2022/01/24 13:57:02;;;;;;;;;;;;;;;5.30;74.84;103416.56;5044076;28;19963;-75
2022/01/24 13:59:32;;;;;;;;;;;;;;;5.16;76.43;103414.38;5061650;28;19924;-75
2022/01/24 14:02:11;;;;;;;;;;;;;;;5.19;78.14;103407.91;5041926;28;20000;-76
2022/01/24 14:04:55;;;;;;;;;;;;;;;5.25;78.91;103400.81;5071816;28;20029;-75
2022/01/24 14:07:25;;;;;;;;;;;;;;;5.34;79.74;103406.75;5043925;28;19977;-75
2022/01/24 14:09:50;;;;;;;;;;;;;;;5.38;79.98;103407.91;5040098;28;19925;-76
2022/01/24 14:12:17;;;;;;;;;;;;;;;5.34;77.84;103404.22;5033988;28;19931;-76
2022/01/24 14:14:48;;;;;;;;;;;;;;;5.34;79.95;103406.75;5043879;28;20336;-76
2022/01/24 14:19:39;;;;;;;;;;;;;;;5.34;79.60;103396.56;5045434;28;19970;-76
2022/01/24 14:22:10;;;;;;;;;;;;;;;5.36;79.99;103396.69;5039444;28;19917;-75
2022/01/24 14:24:45;;;;;;;;;;;;;;;5.37;80.27;103396.81;5044171;28;19924;-75
2022/01/24 14:27:11;;;;;;;;;;;;;;;5.38;79.98;103393.50;5039660;28;20645;-75
2022/01/24 14:29:38;;;;;;;;;;;;;;;5.38;79.40;103390.94;5040703;28;20424;-75
2022/01/24 14:32:10;;;;;;;;;;;;;;;5.38;79.74;103390.06;5040719;28;20059;-75
2022/01/24 14:34:36;;;;;;;;;;;;;;;5.41;80.72;103384.34;5041150;28;19929;-75
2022/01/24 14:37:06;;;;;;;;;;;;;;;5.37;79.90;103384.06;5043009;28;19928;-75
2022/01/24 14:39:33;;;;;;;;;;;;;;;5.35;80.07;103384.69;5050362;28;20019;-75
2022/01/24 14:42:04;;;;;;;;;;;;;;;5.32;80.57;103397.16;5030304;28;19924;-75
2022/01/24 14:47:13;;;;;;;;;;;;;;;5.30;79.03;103389.38;5061811;28;19935;-73
2022/01/24 14:49:40;;;;;;;;;;;;;;;5.32;80.72;103385.31;5041638;28;20011;-76